Time;durP1;ratioP1;P1;durP2;ratioP2;P2;SDS_P1;SDS_P2;PMS_P1;PMS_P2;Temp;Humidity;BMP_temperature;BMP_pressure;BME280_temperature;BME280_humidity;BME280_pressure;Samples;Min_cycle;Max_cycle;Signal;HPM_P1;HPM_P2
2023/10/24 00:01:10;;;;;;;1.35;1.33;;;;;;;11.41;100.00;100165.94;10581670;28;20043;-71
2023/10/24 00:06:10;;;;;;;0.70;0.70;;;;;;;11.46;100.00;100153.63;10581940;28;20028;-71
2023/10/24 00:11:11;;;;;;;0.95;0.95;;;;;;;11.52;100.00;100147.31;10581768;28;20460;-71
2023/10/24 00:16:11;;;;;;;0.38;0.38;;;;;;;11.54;100.00;100146.03;10581194;28;20107;-71
2023/10/24 00:21:12;;;;;;;0.50;0.50;;;;;;;11.55;100.00;100122.44;10579775;28;20390;-73
2023/10/24 00:26:12;;;;;;;0.98;0.98;;;;;;;11.56;100.00;100118.72;10597973;27;20120;-73
2023/10/24 00:31:12;;;;;;;0.93;0.93;;;;;;;11.64;100.00;100121.13;10598193;27;20035;-71
2023/10/24 00:36:13;;;;;;;0.85;0.85;;;;;;;11.67;100.00;100114.41;10597373;27;20327;-72
2023/10/24 00:41:14;;;;;;;0.90;0.90;;;;;;;11.69;100.00;100106.91;10579895;28;20028;-70
2023/10/24 00:46:14;;;;;;;0.55;0.55;;;;;;;11.69;100.00;100121.28;10561676;28;20101;-72
2023/10/24 00:51:15;;;;;;;0.60;0.60;;;;;;;11.69;100.00;100105.00;10578383;28;20149;-72
2023/10/24 00:56:15;;;;;;;0.70;0.70;;;;;;;11.67;100.00;100100.88;10561557;28;20522;-73
2023/10/24 01:01:16;;;;;;;0.75;0.75;;;;;;;11.69;100.00;100106.91;10578566;28;20020;-71
2023/10/24 01:06:17;;;;;;;2.58;2.38;;;;;;;11.78;100.00;100095.53;10578060;28;20034;-72
2023/10/24 01:11:17;;;;;;;0.57;0.57;;;;;;;11.81;100.00;100088.84;10578468;28;20385;-72
2023/10/24 01:16:18;;;;;;;1.80;1.70;;;;;;;11.79;100.00;100091.75;10561155;28;20031;-72
2023/10/24 01:21:18;;;;;;;1.88;1.77;;;;;;;11.82;100.00;100096.72;10578413;28;20031;-71
2023/10/24 01:26:19;;;;;;;0.60;0.60;;;;;;;11.82;100.00;100090.47;10578967;28;20043;-71
2023/10/24 01:31:19;;;;;;;1.00;1.00;;;;;;;11.79;100.00;100101.78;10578418;28;20399;-71
2023/10/24 01:36:19;;;;;;;4.32;2.85;;;;;;;11.80;100.00;100092.59;10603150;27;20038;-71
2023/10/24 01:41:20;;;;;;;1.17;1.05;;;;;;;11.79;100.00;100097.19;10586456;28;20478;-71
2023/10/24 01:46:20;;;;;;;1.85;1.85;;;;;;;11.80;100.00;100087.97;10587125;28;20056;-71
2023/10/24 01:51:21;;;;;;;0.90;0.90;;;;;;;11.79;100.00;100078.19;10592088;28;20027;-73
2023/10/24 01:56:21;;;;;;;0.90;0.90;;;;;;;11.82;100.00;100085.88;10594151;28;20043;-71
2023/10/24 02:01:21;;;;;;;1.05;1.05;;;;;;;11.83;100.00;100082.09;10588386;28;20089;-70
2023/10/24 02:06:22;;;;;;;1.42;1.42;;;;;;;11.78;100.00;100073.84;10587163;28;20366;-72
2023/10/24 02:11:22;;;;;;;0.75;0.75;;;;;;;11.77;100.00;100080.31;10584671;28;20073;-73
2023/10/24 02:16:23;;;;;;;1.25;1.25;;;;;;;11.81;100.00;100086.13;10585835;28;20036;-72
2023/10/24 02:21:23;;;;;;;2.00;1.90;;;;;;;11.78;100.00;100070.28;10567976;28;20092;-72
2023/10/24 02:26:24;;;;;;;2.30;1.63;;;;;;;11.72;100.00;100069.31;10585773;28;20046;-72
2023/10/24 02:31:24;;;;;;;1.33;1.25;;;;;;;11.67;100.00;100066.44;10586003;28;20093;-71
2023/10/24 02:36:25;;;;;;;1.15;1.15;;;;;;;11.70;100.00;100065.97;10584153;28;20040;-73
2023/10/24 02:41:25;;;;;;;0.47;0.47;;;;;;;11.69;100.00;100063.50;10584393;28;20039;-72
2023/10/24 02:46:26;;;;;;;1.25;1.25;;;;;;;11.69;100.00;100064.34;10565509;28;20059;-72
2023/10/24 02:51:27;;;;;;;1.15;1.15;;;;;;;11.71;100.00;100066.81;10584258;28;20059;-72
2023/10/24 02:56:27;;;;;;;0.60;0.60;;;;;;;11.66;100.00;100056.66;10583817;28;20039;-72
2023/10/24 03:01:27;;;;;;;1.98;1.88;;;;;;;11.63;100.00;100065.22;10583841;28;20061;-71
2023/10/24 03:06:28;;;;;;;1.40;1.35;;;;;;;11.67;100.00;100077.28;10584304;28;20059;-72
2023/10/24 03:11:28;;;;;;;2.15;1.75;;;;;;;11.62;100.00;100058.16;10584568;28;20455;-72
2023/10/24 03:16:28;;;;;;;2.05;1.95;;;;;;;11.67;100.00;100076.44;10583137;28;20124;-72
2023/10/24 03:21:29;;;;;;;0.60;0.60;;;;;;;11.58;100.00;100079.47;10582977;28;20076;-72
2023/10/24 03:26:30;;;;;;;0.98;0.98;;;;;;;11.62;100.00;100082.56;10583092;28;20038;-72
2023/10/24 03:31:30;;;;;;;1.95;1.95;;;;;;;11.61;100.00;100078.19;10582295;28;20442;-72
2023/10/24 03:36:30;;;;;;;2.40;2.35;;;;;;;11.59;100.00;100080.31;10584549;28;20145;-71
2023/10/24 03:41:31;;;;;;;1.92;1.55;;;;;;;11.64;100.00;100085.88;10582177;28;20435;-71
2023/10/24 03:46:31;;;;;;;4.70;2.15;;;;;;;11.60;100.00;100074.63;10583476;28;20366;-73
2023/10/24 03:51:31;;;;;;;1.38;1.38;;;;;;;11.59;100.00;100086.56;10583001;28;20067;-72
2023/10/24 03:56:32;;;;;;;1.38;1.38;;;;;;;11.57;100.00;100088.66;10582626;28;20481;-71
2023/10/24 04:01:34;;;;;;;1.25;1.25;;;;;;;11.58;100.00;100094.91;10581772;28;20032;-72
2023/10/24 04:06:35;;;;;;;0.77;0.77;;;;;;;11.51;100.00;100083.28;10581798;28;20451;-70
2023/10/24 04:11:35;;;;;;;3.17;3.08;;;;;;;11.54;100.00;100083.66;10580251;28;20032;-71
2023/10/24 04:16:36;;;;;;;1.20;1.20;;;;;;;11.41;100.00;100090.03;10584625;28;20031;-70
2023/10/24 04:21:36;;;;;;;1.75;1.75;;;;;;;11.39;100.00;100086.75;10586343;28;20141;-70
2023/10/24 04:26:36;;;;;;;1.70;1.70;;;;;;;11.39;100.00;100075.91;10581831;28;20036;-71
2023/10/24 04:31:37;;;;;;;1.25;1.20;;;;;;;11.37;100.00;100063.63;10580655;28;20139;-71
2023/10/24 04:36:37;;;;;;;0.73;0.73;;;;;;;11.27;100.00;100069.56;10579656;28;20397;-69
2023/10/24 04:41:38;;;;;;;1.08;1.08;;;;;;;11.30;100.00;100068.28;10578953;27;20192;-70
2023/10/24 04:46:38;;;;;;;1.98;1.83;;;;;;;11.31;100.00;100065.34;10580897;28;20547;-73
2023/10/24 04:51:38;;;;;;;0.95;0.95;;;;;;;11.27;100.00;100049.75;10580152;28;20035;-73
2023/10/24 04:56:39;;;;;;;2.58;1.60;;;;;;;11.27;100.00;100044.34;10578922;28;20051;-73
2023/10/24 05:01:39;;;;;;;0.68;0.68;;;;;;;11.29;100.00;100047.63;10578355;28;20032;-72
2023/10/24 05:06:40;;;;;;;1.73;1.73;;;;;;;11.25;100.00;100049.13;10578245;28;20087;-73
2023/10/24 05:11:40;;;;;;;2.83;2.72;;;;;;;11.32;100.00;100041.75;10577200;28;20074;-74
2023/10/24 05:16:41;;;;;;;1.20;1.20;;;;;;;11.30;100.00;100038.47;10577396;28;20110;-75
2023/10/24 05:21:41;;;;;;;3.72;3.53;;;;;;;11.33;100.00;100038.03;10578856;28;20070;-75
2023/10/24 05:26:41;;;;;;;2.08;1.95;;;;;;;11.23;100.00;100027.69;10594212;27;20039;-73
2023/10/24 05:31:42;;;;;;;3.13;3.00;;;;;;;11.26;100.00;100019.09;10595335;27;20042;-73
2023/10/24 05:36:42;;;;;;;0.95;0.95;;;;;;;11.26;100.00;100008.25;10577530;28;20066;-74
2023/10/24 05:41:43;;;;;;;2.65;2.45;;;;;;;11.24;100.00;100018.50;10576705;28;20034;-73
2023/10/24 05:46:43;;;;;;;2.92;2.50;;;;;;;11.25;100.00;100013.91;10575676;28;20063;-73
2023/10/24 05:51:44;;;;;;;1.15;1.15;;;;;;;11.30;100.00;100016.78;10578105;28;20069;-70
2023/10/24 05:56:44;;;;;;;3.03;2.33;;;;;;;11.30;100.00;100019.50;10559067;28;20440;-74
2023/10/24 06:01:44;;;;;;;1.30;1.27;;;;;;;11.35;100.00;100012.31;10559925;28;20031;-72
2023/10/24 06:06:46;;;;;;;1.38;1.38;;;;;;;11.38;100.00;100016.47;10593769;28;20058;-72
2023/10/24 06:11:46;;;;;;;3.33;3.22;;;;;;;11.37;100.00;100014.84;10578009;28;20040;-71
2023/10/24 06:16:46;;;;;;;1.40;1.40;;;;;;;11.37;100.00;100018.38;10575546;28;20104;-71
2023/10/24 06:21:47;;;;;;;1.73;1.73;;;;;;;11.44;100.00;100031.84;10583463;28;20031;-72
2023/10/24 06:26:47;;;;;;;3.28;3.13;;;;;;;11.39;100.00;100042.53;10585350;28;20239;-72
2023/10/24 06:31:48;;;;;;;1.20;1.20;;;;;;;11.36;100.00;100040.28;10586698;28;20043;-71
2023/10/24 06:36:48;;;;;;;3.17;2.42;;;;;;;11.40;100.00;100047.75;10602815;27;20039;-71
2023/10/24 06:41:48;;;;;;;4.88;2.35;;;;;;;11.39;100.00;100045.22;10588008;28;20039;-71
2023/10/24 06:46:50;;;;;;;1.23;1.23;;;;;;;11.52;100.00;100060.53;10589180;28;20055;-72
2023/10/24 06:51:50;;;;;;;2.67;2.58;;;;;;;11.55;100.00;100057.38;10588421;28;20061;-72
2023/10/24 06:56:50;;;;;;;1.02;1.02;;;;;;;11.57;100.00;100071.56;10587223;28;20159;-72
2023/10/24 07:01:51;;;;;;;1.95;1.92;;;;;;;11.60;100.00;100066.50;10582624;28;20084;-71
2023/10/24 07:06:51;;;;;;;1.17;1.17;;;;;;;11.55;100.00;100069.09;10584235;28;20035;-72
2023/10/24 07:11:51;;;;;;;2.22;1.92;;;;;;;11.59;100.00;100070.28;10583323;28;20085;-71
2023/10/24 07:16:52;;;;;;;2.13;2.08;;;;;;;11.63;100.00;100070.66;10582541;28;20412;-73
2023/10/24 07:21:52;;;;;;;0.75;0.75;;;;;;;11.60;100.00;100065.69;10582947;27;20536;-72
2023/10/24 07:26:53;;;;;;;1.85;1.50;;;;;;;11.56;100.00;100054.47;10583800;28;20066;-71
2023/10/24 07:31:53;;;;;;;2.35;2.25;;;;;;;11.61;100.00;100060.06;10599070;27;20031;-72
2023/10/24 07:36:53;;;;;;;7.88;2.65;;;;;;;11.69;100.00;100060.81;10587863;28;20039;-71
2023/10/24 07:41:54;;;;;;;3.15;1.67;;;;;;;11.68;100.00;100056.41;10591956;27;20397;-71
2023/10/24 07:46:54;;;;;;;1.17;1.15;;;;;;;11.62;100.00;100056.28;10583760;28;20146;-72
2023/10/24 07:51:55;;;;;;;1.17;1.17;;;;;;;11.59;100.00;100062.16;10583053;28;20032;-73
2023/10/24 07:56:55;;;;;;;1.55;1.55;;;;;;;11.48;100.00;100062.88;10582575;28;20036;-72
2023/10/24 08:01:56;;;;;;;1.05;1.05;;;;;;;11.53;100.00;100064.94;10582131;28;20099;-74
2023/10/24 08:06:56;;;;;;;1.00;1.00;;;;;;;11.51;100.00;100048.88;10580906;28;20039;-75
2023/10/24 08:11:57;;;;;;;1.77;1.70;;;;;;;11.65;100.00;100055.00;10582498;28;20124;-75
2023/10/24 08:16:58;;;;;;;34.45;2.75;;;;;;;11.75;100.00;100054.47;10581412;28;20055;-73
2023/10/24 08:21:58;;;;;;;0.60;0.60;;;;;;;11.68;100.00;100053.69;10579945;28;20036;-73
2023/10/24 08:26:58;;;;;;;0.50;0.50;;;;;;;11.71;100.00;100053.25;10581559;28;20039;-73
2023/10/24 08:31:59;;;;;;;1.25;1.20;;;;;;;11.85;100.00;100049.38;10580396;28;20036;-73
2023/10/24 08:36:59;;;;;;;1.15;1.15;;;;;;;11.98;100.00;100045.66;10580707;28;20115;-74
2023/10/24 08:42:00;;;;;;;3.25;1.10;;;;;;;12.23;100.00;100034.72;10579506;27;20066;-74
2023/10/24 08:47:00;;;;;;;2.05;1.48;;;;;;;12.30;100.00;100049.84;10578652;28;20129;-74
2023/10/24 08:52:01;;;;;;;1.52;1.52;;;;;;;12.33;100.00;100057.53;10580328;28;20032;-74
2023/10/24 08:57:02;;;;;;;2.35;2.15;;;;;;;12.34;100.00;100063.78;10580022;28;20039;-74
2023/10/24 09:02:02;;;;;;;6.07;3.28;;;;;;;12.28;100.00;100073.69;10580759;28;20031;-75
2023/10/24 09:07:03;;;;;;;2.05;1.88;;;;;;;12.37;100.00;100079.59;10587406;28;20537;-76
2023/10/24 09:12:05;;;;;;;0.82;0.82;;;;;;;12.29;100.00;100085.38;10589326;28;20442;-75
2023/10/24 09:17:05;;;;;;;0.93;0.93;;;;;;;12.34;100.00;100080.06;10594524;28;20030;-76
2023/10/24 09:22:06;;;;;;;0.93;0.93;;;;;;;12.36;100.00;100079.84;10581565;28;20114;-75
2023/10/24 09:27:06;;;;;;;0.60;0.60;;;;;;;12.25;100.00;100089.56;10579317;28;20043;-76
2023/10/24 09:32:07;;;;;;;2.78;2.67;;;;;;;12.22;100.00;100087.31;10581498;28;20511;-77
2023/10/24 09:37:07;;;;;;;2.75;2.45;;;;;;;12.21;100.00;100078.34;10579913;28;20039;-76
2023/10/24 09:42:08;;;;;;;1.80;1.70;;;;;;;12.41;100.00;100094.41;10580245;28;20031;-75
2023/10/24 09:47:08;;;;;;;1.45;1.42;;;;;;;12.41;100.00;100071.81;10561776;28;20051;-75
2023/10/24 09:52:08;;;;;;;1.08;1.02;;;;;;;12.43;100.00;100086.00;10561609;28;20028;-77
2023/10/24 09:57:10;;;;;;;0.50;0.50;;;;;;;12.38;100.00;100085.84;10585307;28;20470;-75
2023/10/24 10:02:10;;;;;;;1.17;1.17;;;;;;;12.38;100.00;100100.28;10586481;28;20051;-77
2023/10/24 10:07:13;;;;;;;0.93;0.93;;;;;;;12.33;100.00;100090.09;10586385;28;20537;-78
2023/10/24 10:12:17;;;;;;;2.85;2.65;;;;;;;12.43;100.00;100086.84;10570846;28;20071;-77
2023/10/24 10:17:37;;;;;;;0.65;0.65;;;;;;;12.42;100.00;100078.94;10586918;28;20036;-76
2023/10/24 10:22:56;;;;;;;1.27;1.25;;;;;;;12.42;100.00;100078.94;10587383;28;20051;-77
2023/10/24 10:28:14;;;;;;;1.58;1.58;;;;;;;12.31;100.00;100065.06;10586675;28;20455;-76
2023/10/24 10:33:21;;;;;;;0.90;0.90;;;;;;;12.32;100.00;100084.91;10586787;28;20038;-78
2023/10/24 10:38:37;;;;;;;1.48;1.38;;;;;;;12.44;100.00;100074.91;10584994;28;20092;-78
2023/10/24 10:43:38;;;;;;;2.27;1.73;;;;;;;12.48;100.00;100080.72;10585322;28;20047;-77
2023/10/24 10:48:38;;;;;;;0.52;0.52;;;;;;;12.41;100.00;100078.13;10602097;27;20419;-76
2023/10/24 10:54:07;;;;;;;0.40;0.40;;;;;;;12.34;100.00;100071.91;10586028;28;20421;-78
2023/10/24 10:59:08;;;;;;;12.85;3.53;;;;;;;12.24;100.00;100080.59;10585899;28;20031;-77
2023/10/24 11:04:14;;;;;;;0.70;0.70;;;;;;;12.14;100.00;100085.75;10588567;28;20469;-76
2023/10/24 11:09:15;;;;;;;1.88;1.85;;;;;;;11.97;100.00;100076.59;10584700;28;20081;-73
2023/10/24 11:14:16;;;;;;;0.85;0.85;;;;;;;11.78;100.00;100070.28;10581342;28;20519;-73
2023/10/24 11:19:20;;;;;;;1.02;1.02;;;;;;;11.73;100.00;100070.97;10565027;28;20031;-72
2023/10/24 11:24:22;;;;;;;0.77;0.77;;;;;;;11.76;100.00;100081.34;10565454;28;20078;-71
2023/10/24 11:29:22;;;;;;;0.93;0.93;;;;;;;11.78;100.00;100062.97;10582526;28;20063;-70
2023/10/24 11:34:23;;;;;;;12.13;2.92;;;;;;;11.71;100.00;100054.09;10581164;28;20600;-72
2023/10/24 11:39:23;;;;;;;0.77;0.77;;;;;;;11.66;100.00;100053.94;10581158;28;20031;-73
2023/10/24 11:44:24;;;;;;;0.70;0.70;;;;;;;11.65;100.00;100049.56;10582505;28;20143;-71
2023/10/24 11:49:34;;;;;;;0.47;0.47;;;;;;;11.71;100.00;100043.25;10598185;27;20031;-71
2023/10/24 11:54:36;;;;;;;0.80;0.80;;;;;;;11.79;100.00;100040.22;10583875;28;20117;-71
2023/10/24 11:59:37;;;;;;;0.65;0.65;;;;;;;11.95;100.00;100036.09;10563530;28;20042;-71
2023/10/24 12:04:37;;;;;;;0.40;0.40;;;;;;;12.12;100.00;100032.75;10562606;28;20119;-72
2023/10/24 12:09:37;;;;;;;0.40;0.40;;;;;;;12.12;100.00;100046.31;10581143;28;20338;-71
2023/10/24 12:14:40;;;;;;;0.68;0.68;;;;;;;11.94;100.00;100052.63;10579292;28;20036;-71
2023/10/24 12:19:41;;;;;;;0.50;0.50;;;;;;;11.89;100.00;100057.88;10564258;28;20600;-73
2023/10/24 12:24:41;;;;;;;0.40;0.40;;;;;;;11.90;100.00;100054.97;10581385;28;20063;-72
2023/10/24 12:29:41;;;;;;;0.85;0.77;;;;;;;11.92;100.00;100065.56;10579040;28;20417;-71
2023/10/24 12:34:42;;;;;;;0.93;0.93;;;;;;;11.86;100.00;100076.25;10580814;28;20035;-71
2023/10/24 12:39:43;;;;;;;0.50;0.50;;;;;;;11.83;100.00;100079.41;10582428;28;20082;-72
2023/10/24 12:44:44;;;;;;;0.40;0.40;;;;;;;11.79;100.00;100069.22;10595675;27;20052;-70
2023/10/24 12:49:44;;;;;;;0.40;0.40;;;;;;;11.83;100.00;100065.00;10581386;28;20100;-70
2023/10/24 12:54:44;;;;;;;1.05;1.05;;;;;;;11.83;100.00;100065.00;10579785;28;20064;-73
2023/10/24 12:59:46;;;;;;;0.68;0.68;;;;;;;11.80;100.00;100069.00;10577099;28;20028;-71
2023/10/24 13:04:46;;;;;;;0.50;0.50;;;;;;;11.89;100.00;100060.59;10578932;28;20155;-72
2023/10/24 13:09:46;;;;;;;0.43;0.43;;;;;;;11.99;100.00;100014.75;10578912;28;20458;-72
2023/10/24 13:14:47;;;;;;;2.65;2.55;;;;;;;11.91;100.00;100024.06;10578088;28;20051;-72
2023/10/24 13:19:47;;;;;;;0.30;0.30;;;;;;;12.12;100.00;100027.31;10590580;28;20056;-72
2023/10/24 13:24:49;;;;;;;0.40;0.40;;;;;;;12.11;100.00;100029.22;10581074;28;20095;-73
2023/10/24 13:29:49;;;;;;;0.73;0.73;;;;;;;12.14;100.00;100026.03;10578663;28;20378;-74
2023/10/24 13:34:50;;;;;;;0.40;0.40;;;;;;;12.14;100.00;100036.06;10578138;28;20042;-73
2023/10/24 13:39:50;;;;;;;0.40;0.40;;;;;;;12.19;100.00;100047.06;10577684;28;20020;-73
2023/10/24 13:44:50;;;;;;;0.95;0.95;;;;;;;12.24;100.00;100041.78;10593936;28;20051;-73
2023/10/24 13:49:52;;;;;;;0.60;0.60;;;;;;;12.39;100.00;100039.50;10578729;28;20058;-73
2023/10/24 13:54:52;;;;;;;0.50;0.50;;;;;;;12.51;100.00;100053.13;10578089;28;20039;-72
2023/10/24 13:59:52;;;;;;;0.60;0.60;;;;;;;12.60;100.00;100053.59;10580074;28;20028;-74
2023/10/24 14:04:53;;;;;;;0.50;0.50;;;;;;;12.66;100.00;100045.34;10580650;28;20039;-72
2023/10/24 14:09:53;;;;;;;0.50;0.50;;;;;;;12.69;100.00;100041.34;10584610;28;20163;-71
2023/10/24 14:14:54;;;;;;;0.43;0.43;;;;;;;12.77;100.00;100038.31;10577659;28;20036;-72
2023/10/24 14:19:54;;;;;;;0.70;0.70;;;;;;;12.83;100.00;100023.78;10577333;28;20110;-74
2023/10/24 14:24:55;;;;;;;0.50;0.50;;;;;;;12.92;100.00;100024.25;10576441;28;20455;-74
2023/10/24 14:29:55;;;;;;;0.38;0.38;;;;;;;12.87;100.00;100018.72;10583781;28;20039;-73
2023/10/24 14:34:56;;;;;;;0.35;0.35;;;;;;;12.85;100.00;100024.38;10580148;28;20039;-72
2023/10/24 14:39:56;;;;;;;1.20;1.20;;;;;;;12.84;100.00;100035.47;10578018;28;20469;-74
2023/10/24 14:44:57;;;;;;;0.30;0.30;;;;;;;12.73;100.00;100035.22;10601761;27;20075;-74
2023/10/24 14:49:59;;;;;;;0.30;0.30;;;;;;;12.69;100.00;100036.72;10584982;28;20038;-72
2023/10/24 14:54:59;;;;;;;0.50;0.50;;;;;;;12.69;100.00;100034.03;10600349;27;20488;-73
2023/10/24 15:00:00;;;;;;;0.38;0.38;;;;;;;12.74;100.00;100034.16;10583529;28;20032;-74
2023/10/24 15:05:01;;;;;;;0.32;0.32;;;;;;;12.72;100.00;100022.69;10583804;28;20130;-74
2023/10/24 15:10:03;;;;;;;0.50;0.50;;;;;;;12.79;100.00;100014.44;10584760;27;20100;-72
2023/10/24 15:15:04;;;;;;;0.50;0.50;;;;;;;12.90;100.00;100018.25;10584471;28;20031;-73
2023/10/24 15:20:05;;;;;;;0.40;0.40;;;;;;;12.98;100.00;100023.31;10582580;28;20036;-75
2023/10/24 15:25:06;;;;;;;0.50;0.50;;;;;;;12.98;100.00;100017.88;10582492;28;20364;-74
2023/10/24 15:30:09;;;;;;;0.50;0.50;;;;;;;12.79;100.00;100026.16;10582566;28;20071;-73
2023/10/24 15:35:10;;;;;;;0.50;0.50;;;;;;;12.67;100.00;100029.91;10581952;28;20028;-74
2023/10/24 15:40:10;;;;;;;0.40;0.40;;;;;;;12.68;100.00;100029.66;10583004;28;20501;-72
2023/10/24 15:45:11;;;;;;;0.40;0.40;;;;;;;12.99;100.00;100025.00;10583335;28;20214;-74
2023/10/24 15:50:11;;;;;;;0.43;0.43;;;;;;;12.97;100.00;100017.06;10581492;28;20543;-73
2023/10/24 15:55:12;;;;;;;0.50;0.50;;;;;;;12.91;100.00;100011.75;10563316;28;20166;-75
2023/10/24 16:00:13;;;;;;;1.20;1.20;;;;;;;12.67;100.00;100017.16;10579904;27;20411;-74
2023/10/24 16:05:14;;;;;;;0.40;0.40;;;;;;;12.42;100.00;100020.03;10582060;28;20031;-74
2023/10/24 16:10:14;;;;;;;2.35;2.25;;;;;;;12.30;100.00;100030.84;10581036;28;20516;-74
2023/10/24 16:15:15;;;;;;;0.45;0.45;;;;;;;12.23;100.00;100029.28;10582056;28;20047;-74
2023/10/24 16:20:15;;;;;;;0.50;0.50;;;;;;;12.14;100.00;100038.78;10580439;28;20446;-75
2023/10/24 16:25:16;;;;;;;0.50;0.50;;;;;;;12.24;100.00;100034.47;10581555;28;20043;-74
2023/10/24 16:30:16;;;;;;;0.50;0.50;;;;;;;12.40;100.00;100034.88;10583050;28;20061;-74
2023/10/24 16:35:17;;;;;;;0.40;0.40;;;;;;;12.46;100.00;100036.69;10585798;28;20116;-74
2023/10/24 16:40:17;;;;;;;0.40;0.40;;;;;;;12.42;100.00;100043.63;10579319;28;20114;-74
2023/10/24 16:45:18;;;;;;;0.45;0.45;;;;;;;12.25;100.00;100054.28;10580954;28;20059;-74
2023/10/24 16:50:18;;;;;;;0.50;0.50;;;;;;;12.16;100.00;100055.69;10578048;28;20080;-75
2023/10/24 16:55:19;;;;;;;0.40;0.40;;;;;;;11.99;100.00;100056.28;10579642;28;20035;-74
2023/10/24 17:00:19;;;;;;;0.50;0.50;;;;;;;11.88;100.00;100070.63;10578943;28;20042;-75
2023/10/24 17:05:20;;;;;;;3.95;1.63;;;;;;;11.78;100.00;100083.84;10577452;28;20031;-75
2023/10/24 17:10:20;;;;;;;0.40;0.40;;;;;;;11.71;100.00;100089.34;10579543;28;20497;-74
2023/10/24 17:15:21;;;;;;;0.30;0.30;;;;;;;11.62;100.00;100088.81;10579235;28;20032;-75
2023/10/24 17:20:21;;;;;;;0.82;0.82;;;;;;;11.51;100.00;100099.56;10579280;28;20528;-76
2023/10/24 17:25:22;;;;;;;0.65;0.65;;;;;;;11.44;100.00;100094.19;10579410;28;20028;-74
2023/10/24 17:30:24;;;;;;;0.60;0.60;;;;;;;11.37;100.00;100096.16;10581107;28;20042;-75
2023/10/24 17:35:24;;;;;;;0.57;0.57;;;;;;;11.30;100.00;100106.22;10580132;28;20359;-74
2023/10/24 17:40:26;;;;;;;0.60;0.60;;;;;;;11.18;100.00;100097.97;10596607;28;20040;-76
2023/10/24 17:45:26;;;;;;;0.38;0.38;;;;;;;11.11;100.00;100094.50;10580786;28;20059;-76
2023/10/24 17:50:26;;;;;;;0.40;0.40;;;;;;;11.04;100.00;100104.53;10577962;28;20036;-75
2023/10/24 17:55:29;;;;;;;0.93;0.93;;;;;;;11.02;100.00;100109.38;10579100;28;20441;-74
2023/10/24 18:00:32;;;;;;;0.60;0.60;;;;;;;11.05;100.00;100104.34;10577363;28;20027;-75
2023/10/24 18:05:33;;;;;;;0.30;0.30;;;;;;;11.04;100.00;100099.97;10577898;28;20067;-75
2023/10/24 18:10:34;;;;;;;4.78;1.63;;;;;;;11.02;100.00;100103.94;10579346;28;20051;-76
2023/10/24 18:15:37;;;;;;;0.50;0.50;;;;;;;11.03;100.00;100103.72;10582002;28;20428;-75
2023/10/24 18:20:37;;;;;;;0.43;0.43;;;;;;;11.17;100.00;100101.75;10585958;28;20442;-75
2023/10/24 18:25:40;;;;;;;0.60;0.60;;;;;;;11.33;100.00;100097.66;10587066;27;20085;-76
2023/10/24 18:30:40;;;;;;;2.75;2.25;;;;;;;11.23;100.00;100091.88;10586156;28;20032;-76
2023/10/24 18:35:41;;;;;;;0.47;0.47;;;;;;;11.13;100.00;100089.66;10586098;28;20397;-74
2023/10/24 18:40:48;;;;;;;0.50;0.50;;;;;;;11.04;100.00;100091.00;10588285;28;20135;-75
2023/10/24 18:45:48;;;;;;;0.40;0.40;;;;;;;11.07;100.00;100104.97;10586709;28;20051;-78
2023/10/24 18:50:49;;;;;;;5.65;2.72;;;;;;;11.05;100.00;100111.63;10596425;28;20059;-77
2023/10/24 18:55:50;;;;;;;0.50;0.50;;;;;;;10.96;100.00;100104.81;10608233;28;20046;-77
2023/10/24 19:00:55;;;;;;;0.50;0.50;;;;;;;10.87;100.00;100109.66;10617334;27;20032;-78
2023/10/24 19:05:55;;;;;;;0.40;0.40;;;;;;;10.81;100.00;100116.78;10613307;27;20030;-77
2023/10/24 19:10:56;;;;;;;0.50;0.50;;;;;;;10.74;100.00;100102.47;10591593;28;20078;-76
2023/10/24 19:15:56;;;;;;;0.40;0.40;;;;;;;10.77;100.00;100107.44;10586764;28;20399;-78
2023/10/24 19:20:57;;;;;;;0.60;0.60;;;;;;;10.74;100.00;100109.75;10587102;28;20448;-73
2023/10/24 19:25:58;;;;;;;1.40;1.40;;;;;;;10.79;100.00;100109.94;10585022;28;20113;-74
2023/10/24 19:30:58;;;;;;;1.30;1.30;;;;;;;10.81;100.00;100121.38;10584798;28;20107;-74
2023/10/24 19:36:07;;;;;;;1.02;0.65;;;;;;;10.88;100.00;100128.44;10584946;28;20382;-74
2023/10/24 19:41:08;;;;;;;36.53;2.80;;;;;;;10.80;100.00;100136.78;10584626;28;20027;-75
2023/10/24 19:46:08;;;;;;;0.40;0.40;;;;;;;10.69;100.00;100141.03;10584980;27;20131;-74
2023/10/24 19:51:09;;;;;;;0.50;0.50;;;;;;;10.64;100.00;100140.84;10583926;27;20039;-76
2023/10/24 19:56:10;;;;;;;1.45;1.45;;;;;;;10.62;100.00;100133.97;10583850;28;20085;-75
2023/10/24 20:01:11;;;;;;;0.50;0.50;;;;;;;10.58;100.00;100133.59;10584173;28;20027;-75
2023/10/24 20:06:11;;;;;;;1.63;1.58;;;;;;;10.68;100.00;100135.81;10582051;28;20054;-76
2023/10/24 20:11:13;;;;;;;0.40;0.40;;;;;;;10.77;100.00;100123.69;10583393;28;20324;-74
2023/10/24 20:16:13;;;;;;;0.40;0.40;;;;;;;10.75;100.00;100131.19;10583048;28;20080;-75
2023/10/24 20:21:14;;;;;;;0.40;0.40;;;;;;;10.67;100.00;100131.47;10582199;28;20024;-75
2023/10/24 20:26:14;;;;;;;1.73;1.73;;;;;;;10.59;100.00;100137.13;10580940;28;20040;-75
2023/10/24 20:31:14;;;;;;;0.50;0.50;;;;;;;10.42;100.00;100137.63;10584721;28;20023;-75
2023/10/24 20:36:15;;;;;;;0.50;0.50;;;;;;;10.31;100.00;100127.47;10601516;27;20042;-75
2023/10/24 20:41:15;;;;;;;0.60;0.60;;;;;;;10.19;100.00;100126.44;10584943;28;20122;-74
2023/10/24 20:46:16;;;;;;;0.75;0.75;;;;;;;10.10;100.00;100125.84;10582097;28;20471;-76
2023/10/24 20:51:16;;;;;;;0.40;0.40;;;;;;;10.14;100.00;100121.66;10584428;28;20035;-75
2023/10/24 20:56:16;;;;;;;0.50;0.50;;;;;;;10.11;100.00;100118.56;10582500;28;20035;-74
2023/10/24 21:01:19;;;;;;;0.50;0.50;;;;;;;10.04;100.00;100121.28;10582301;28;20058;-75
2023/10/24 21:06:20;;;;;;;0.40;0.40;;;;;;;10.16;100.00;100110.66;10582018;28;20075;-75
2023/10/24 21:11:20;;;;;;;0.40;0.40;;;;;;;10.05;100.00;100120.28;10598423;27;20127;-77
2023/10/24 21:16:20;;;;;;;0.40;0.40;;;;;;;10.07;100.00;100111.94;10583447;28;20032;-77
2023/10/24 21:21:21;;;;;;;0.30;0.30;;;;;;;10.10;100.00;100111.50;10595362;28;20028;-73
2023/10/24 21:26:24;;;;;;;3.67;3.45;;;;;;;10.11;100.00;100096.91;10592649;28;20043;-76
2023/10/24 21:31:25;;;;;;;0.45;0.45;;;;;;;10.22;100.00;100097.09;10601073;28;20038;-73
2023/10/24 21:36:25;;;;;;;0.40;0.40;;;;;;;10.37;100.00;100096.00;10597615;28;20051;-75
2023/10/24 21:41:26;;;;;;;0.50;0.50;;;;;;;10.40;100.00;100106.38;10581537;28;20540;-75
2023/10/24 21:46:26;;;;;;;0.50;0.50;;;;;;;10.41;100.00;100108.91;10580955;28;20063;-74
2023/10/24 21:51:27;;;;;;;0.50;0.50;;;;;;;10.40;100.00;100109.09;10585260;28;20048;-74
2023/10/24 21:56:28;;;;;;;0.52;0.52;;;;;;;10.50;100.00;100120.31;10588188;28;20054;-75
2023/10/24 22:01:28;;;;;;;0.50;0.50;;;;;;;10.65;100.00;100118.13;10589163;28;20101;-75
2023/10/24 22:06:28;;;;;;;1.25;1.25;;;;;;;10.79;100.00;100113.47;10586583;28;20031;-72
2023/10/24 22:11:29;;;;;;;0.45;0.45;;;;;;;10.83;100.00;100109.28;10587272;28;20378;-71
2023/10/24 22:16:30;;;;;;;0.50;0.50;;;;;;;10.84;100.00;100116.34;10586444;28;20046;-70
2023/10/24 22:21:30;;;;;;;0.35;0.35;;;;;;;10.88;100.00;100106.75;10568526;28;20035;-72
2023/10/24 22:26:30;;;;;;;0.50;0.50;;;;;;;10.89;100.00;100113.00;10585655;28;20490;-71
2023/10/24 22:31:31;;;;;;;0.40;0.40;;;;;;;10.84;100.00;100113.63;10585722;28;20104;-69
2023/10/24 22:36:31;;;;;;;0.70;0.70;;;;;;;10.74;100.00;100112.47;10586665;28;20489;-70
2023/10/24 22:41:32;;;;;;;0.47;0.47;;;;;;;10.67;100.00;100116.03;10584758;28;20378;-70
2023/10/24 22:46:32;;;;;;;0.73;0.73;;;;;;;10.68;100.00;100128.53;10585416;28;20044;-69